Portada
METAR-TAF:

METAR-TAF

Aeropuertos :

Aeropuerto Internacional de Pensacola

Pensacola, Florida, Estados Unidos

latitud: 30-28-41N, longitud: 087-11-13W, altitud: 36 m

Observación

El informe se hizo hace 57 minutos, a las 21:53 UTC
Viento 8 kt del oeste-noroeste
Temperatura 18°C
Humedad 34%
Presión 1016 hPa
Visibilidad: 16.1 km
Cielo despejado

METAR: KPNS 242153Z 30008KT 10SM CLR 18/02 A2999 RMK AO2 SLP156 T01830017

Hora: 16:50 (22:50 UTC)

Pronóstico

El informe se hizo hace 5 horas y 30 minutos, a las 17:20 UTC
Pronóstico válido del 24 a las 18 UTC al 25 a las 18 UTC
Viento 10 kt del noroeste
Visibilidad: 10 km
Escasas nubes a una altura de 1500 ft
A partir de las 24 a las 1900 UTC
Viento 10 kt del oeste-noroeste
Visibilidad: 10 km
Cielo despejado

TAF: KPNS 241720Z 2418/2518 31010KT P6SM FEW015 FM241900 30010KT P6SM SKC

Observaciones y pronósticos meteorológicos de más de 4000 aeropuertos (mensajes METAR y TAF).

Los puntos amarillos y rojos representan las estaciones disponibles.

Ponga el ratón en el punto deseado para ver el nombre de la estación.

Haga clic para ver las observaciones y los pronósticos meteorológicos.

Para cambiar el mapa : haga clic en los botones verdes con una cruz de color negro para hacer un zoom, en el botón verde con un guión para alejar o en las flechas verdes para mapas adyacentes.


METAR-TAF: